Terminal Aerodrome Forecast
Issued by NWS

Home | Current Version | Previous Version | Text Only | Print | Product List | Glossary On
Versions: 1 2 3 4 5 6 7 8 9 10 11 12 13 14 15
000
FTUS46 KMTR 182339
TAFSJC
TAF
KSJC 182339Z 1900/1924 31005KT P6SM BKN250
     FM190500 VRB03KT P6SM OVC250
     FM191000 16004KT P6SM OVC250
     FM192100 18010KT P6SM BKN150=

USA.gov is the U.S. government's official web portal to all federal, state and local government web resources and services.